Sanford, FL (32771)

8:00 AM EST on December 06, 2016 (GMT -0500)
Sanford EOC | | Change Station

Elev 62 ft 28.80 °N, 81.28 °W | Updated 6 seconds ago

Scattered Clouds
Scattered Clouds
76.5 °F
Feels Like 77 °F
N
6.0
Wind Variable Wind from SSW
Gusts 13.0 mph

Today
High -- | Low -- °F
--% Chance of Precip.
Yesterday
High -- | Low -- °F
Precip. -- in
Pressure 29.88 in
Visibility 10.0 miles
Clouds Few 1600 ft
Scattered Clouds 9000 ft
Heat Index 77 °F
Dew Point 72 °F
Humidity 86%
Rainfall 0.00 in
Snow Depth Not available.
7:05 AM 5:27 PM
Waxing Crescent, 41% visible
METAR KSFB 061253Z 20011KT 10SM FEW016 SCT090 24/22 A2988 RMK AO2 SLP117 T02440217
Pressure 29.88 in
Visibility 10.0 miles
Clouds Few 1600 ft
Scattered Clouds 9000 ft
Heat Index 77 °F
Dew Point 72 °F
Humidity 86%
Rainfall 0.00 in
Snow Depth Not available.
7:05 AM 5:27 PM
Waxing Crescent, 41% visible
METAR KSFB 061253Z 20011KT 10SM FEW016 SCT090 24/22 A2988 RMK AO2 SLP117 T02440217

10-Day Weather Forecast

Almanac

Astronomy

Dec. 06, 2016 Rise Set
Actual Time
Civil Twilight
Nautical Twilight
Astronomical Twilight
Moon
Length of Visible Light
Length of Day
Tomorrow will be .
, % of the Moon is Illuminated

Today's Extremes

State Highs State Lows

Community

WunderPhotos

Upload Photos

1,955,938 photos uploaded!

WunderBlog® & News

Nearby

Air Quality

  Air Quality AQ Index Pollutant
Not available.

Snow Depth

Station Depth Elevation

Earthquake Activity

City Distance Mag. Time & Date
Minimum magnitude displayed is 2.5.

Coastal Water Temperatures

Place Temperature

Stations

Nearby Weather Stations

Station Location Temp. Windchill Dew Point Humidity Wind Precip. Elev Updated Type
                   

Watches & Warnings

There are currently no watches in effect.